createdAt,value
2023-03-20T00:00:09.242Z,6.47
2023-03-20T00:02:30.829Z,7.00
2023-03-20T00:04:52.337Z,7.83
2023-03-20T00:07:13.829Z,7.00
2023-03-20T00:09:35.556Z,7.13
2023-03-20T00:11:57.123Z,9.43
2023-03-20T00:14:22.308Z,6.07
2023-03-20T00:16:45.856Z,6.43
2023-03-20T00:19:16.379Z,6.97
2023-03-20T00:21:37.881Z,6.70
2023-03-20T00:23:59.347Z,9.27
2023-03-20T00:26:25.709Z,6.67
2023-03-20T00:28:48.811Z,8.23
2023-03-20T00:31:33.040Z,8.10
2023-03-20T00:33:57.261Z,6.03
2023-03-20T00:36:18.831Z,7.07
2023-03-20T00:38:40.260Z,5.33
2023-03-20T00:41:01.951Z,5.73
2023-03-20T00:43:24.205Z,7.10
2023-03-20T00:45:46.512Z,9.67
2023-03-20T00:48:13.126Z,7.77
2023-03-20T00:50:34.815Z,8.87
2023-03-20T00:52:57.984Z,7.87
2023-03-20T00:55:22.031Z,5.77
2023-03-20T00:57:54.039Z,7.07
2023-03-20T01:00:39.633Z,6.93
2023-03-20T01:03:06.016Z,7.60
2023-03-20T01:05:29.112Z,5.07
2023-03-20T01:07:51.106Z,5.23
2023-03-20T01:10:13.677Z,4.63
2023-03-20T01:12:35.396Z,4.73
2023-03-20T01:14:58.687Z,4.40
2023-03-20T01:17:24.415Z,7.43
2023-03-20T01:19:46.323Z,6.27
2023-03-20T01:22:07.984Z,5.10
2023-03-20T01:24:29.426Z,6.67
2023-03-20T01:26:52.735Z,7.63
2023-03-20T01:29:16.927Z,5.70
2023-03-20T01:31:38.773Z,6.23
2023-03-20T01:34:00.228Z,6.90
2023-03-20T01:36:23.521Z,7.57
2023-03-20T01:38:45.340Z,10.23
2023-03-20T01:41:12.839Z,7.37
2023-03-20T01:43:35.898Z,6.03
2023-03-20T01:46:02.893Z,5.20
2023-03-20T01:48:27.634Z,6.40
2023-03-20T01:50:49.155Z,6.53
2023-03-20T01:53:20.195Z,8.83
2023-03-20T01:55:43.566Z,6.70
2023-03-20T01:58:10.329Z,8.73
2023-03-20T02:00:32.149Z,5.93
2023-03-20T02:02:54.972Z,6.17
2023-03-20T02:05:20.298Z,5.40
2023-03-20T02:07:45.655Z,7.53
2023-03-20T02:10:14.505Z,7.07
2023-03-20T02:12:36.434Z,6.97
2023-03-20T02:14:58.708Z,5.67
2023-03-20T02:17:20.521Z,7.80
2023-03-20T02:20:14.564Z,6.50
2023-03-20T02:22:47.952Z,5.73
2023-03-20T02:25:34.671Z,5.83
2023-03-20T02:28:33.341Z,6.10
2023-03-20T02:31:14.688Z,8.00
2023-03-20T02:34:02.135Z,6.73
2023-03-20T02:36:38.816Z,6.30
2023-03-20T02:39:06.520Z,8.93
2023-03-20T02:41:32.965Z,7.30
2023-03-20T02:44:22.954Z,9.30
2023-03-20T02:47:07.939Z,7.30
2023-03-20T02:49:54.191Z,8.57
2023-03-20T02:52:44.642Z,8.97
2023-03-20T02:55:16.804Z,7.87
2023-03-20T02:57:45.829Z,8.77
2023-03-20T03:00:15.804Z,10.30
2023-03-20T03:02:42.742Z,9.63
2023-03-20T03:05:11.273Z,10.20
2023-03-20T03:07:35.405Z,12.40
2023-03-20T03:10:01.613Z,11.57
2023-03-20T03:12:32.173Z,12.57
2023-03-20T03:14:57.022Z,10.93
2023-03-20T03:17:22.253Z,8.77
2023-03-20T03:19:50.959Z,10.57
2023-03-20T03:22:12.674Z,9.57
2023-03-20T03:24:41.419Z,11.03
2023-03-20T03:27:13.496Z,9.77
2023-03-20T03:29:37.341Z,9.43
2023-03-20T03:31:58.911Z,8.57
2023-03-20T03:34:22.624Z,7.90
2023-03-20T03:36:54.884Z,9.67
2023-03-20T03:39:38.275Z,11.67
2023-03-20T03:42:33.972Z,9.97
2023-03-20T03:45:15.078Z,7.53
2023-03-20T03:47:54.154Z,5.97
2023-03-20T03:50:53.493Z,7.90
2023-03-20T03:53:20.281Z,9.37
2023-03-20T03:55:46.011Z,7.07
2023-03-20T03:58:16.271Z,8.37
2023-03-20T04:00:42.233Z,8.47
2023-03-20T04:03:06.253Z,8.27
2023-03-20T04:05:33.252Z,6.77
2023-03-20T04:07:58.245Z,7.03
2023-03-20T04:10:19.745Z,8.00
2023-03-20T04:12:43.470Z,8.87
2023-03-20T04:15:05.549Z,13.53
2023-03-20T04:17:27.068Z,15.80
2023-03-20T04:19:48.596Z,13.10
2023-03-20T04:22:10.370Z,12.10
2023-03-20T04:24:31.818Z,10.80
2023-03-20T04:26:53.325Z,12.57
2023-03-20T04:29:16.030Z,18.30
2023-03-20T04:31:37.522Z,14.47
2023-03-20T04:33:59.059Z,17.87
2023-03-20T04:36:20.881Z,17.77
2023-03-20T04:38:50.608Z,18.70
2023-03-20T04:41:12.153Z,18.83
2023-03-20T04:43:33.669Z,18.63
2023-03-20T04:45:55.311Z,18.33
2023-03-20T04:48:16.840Z,20.53
2023-03-20T04:50:38.410Z,18.17
2023-03-20T04:52:59.954Z,18.13
2023-03-20T04:55:22.457Z,18.50
2023-03-20T04:57:43.938Z,20.13
2023-03-20T05:00:06.076Z,20.17
2023-03-20T05:02:27.653Z,20.17
2023-03-20T05:04:49.138Z,19.13
2023-03-20T05:07:10.841Z,18.97
2023-03-20T05:09:32.296Z,22.00
2023-03-20T05:11:53.746Z,19.80
2023-03-20T05:14:15.377Z,19.13
2023-03-20T05:16:36.889Z,21.93
2023-03-20T05:18:58.564Z,19.37
2023-03-20T05:21:20.080Z,19.87
2023-03-20T05:23:41.546Z,16.80
2023-03-20T05:26:03.197Z,17.73
2023-03-20T05:28:24.832Z,18.33
2023-03-20T05:30:46.343Z,17.63
2023-03-20T05:33:08.223Z,17.83
2023-03-20T05:35:29.987Z,17.90
2023-03-20T05:37:51.446Z,17.13
2023-03-20T05:40:15.776Z,19.13
2023-03-20T05:42:37.228Z,17.97
2023-03-20T05:44:58.678Z,18.87
2023-03-20T05:47:20.604Z,17.40
2023-03-20T05:49:42.046Z,19.37
2023-03-20T05:52:03.618Z,20.93
2023-03-20T05:54:25.283Z,20.03
2023-03-20T05:56:47.043Z,21.07
2023-03-20T05:59:08.644Z,22.37
2023-03-20T06:01:30.262Z,20.23
2023-03-20T06:03:51.853Z,23.00
2023-03-20T06:06:13.398Z,21.50
2023-03-20T06:08:36.483Z,22.20
2023-03-20T06:10:57.971Z,21.33
2023-03-20T06:13:19.607Z,22.80
2023-03-20T06:15:41.122Z,21.00
2023-03-20T06:18:02.726Z,21.20
2023-03-20T06:20:24.850Z,22.13
2023-03-20T06:22:46.768Z,19.87
2023-03-20T06:25:08.604Z,23.30
2023-03-20T06:27:31.304Z,20.63
2023-03-20T06:29:52.778Z,22.03
2023-03-20T06:32:14.821Z,22.63
2023-03-20T06:34:36.589Z,20.73
2023-03-20T06:36:58.021Z,19.97
2023-03-20T06:39:19.457Z,21.37
2023-03-20T06:41:41.111Z,22.77
2023-03-20T06:44:03.906Z,17.70
2023-03-20T06:46:25.490Z,19.50
2023-03-20T06:48:47.306Z,19.20
2023-03-20T06:51:09.127Z,20.20
2023-03-20T06:53:30.911Z,22.53
2023-03-20T06:55:52.720Z,22.47
2023-03-20T06:58:14.545Z,23.83
2023-03-20T07:00:35.991Z,21.47
2023-03-20T07:02:57.527Z,24.73
2023-03-20T07:05:20.461Z,24.50
2023-03-20T07:07:42.133Z,25.87
2023-03-20T07:10:04.674Z,23.80
2023-03-20T07:12:28.692Z,23.67
2023-03-20T07:14:50.142Z,23.57
2023-03-20T07:17:12.773Z,25.70
2023-03-20T07:19:35.005Z,26.60
2023-03-20T07:22:03.705Z,29.80
2023-03-20T07:24:25.181Z,25.87
2023-03-20T07:26:47.074Z,26.00
2023-03-20T07:29:08.504Z,26.37
2023-03-20T07:31:31.226Z,27.40
2023-03-20T07:33:52.766Z,26.03
2023-03-20T07:36:14.374Z,27.63
2023-03-20T07:38:35.783Z,29.70
2023-03-20T07:40:57.239Z,29.90
2023-03-20T07:43:18.737Z,29.30
2023-03-20T07:45:40.293Z,35.10
2023-03-20T07:48:01.814Z,35.93
2023-03-20T07:50:23.315Z,35.17
2023-03-20T07:52:48.641Z,37.77
2023-03-20T07:55:10.182Z,37.57
2023-03-20T07:57:31.858Z,34.63
2023-03-20T07:59:53.469Z,33.97
2023-03-20T08:02:16.285Z,39.70
2023-03-20T08:04:37.799Z,42.90
2023-03-20T08:06:59.481Z,39.77
2023-03-20T08:09:21.093Z,40.73
2023-03-20T08:11:42.625Z,42.77
2023-03-20T08:14:04.064Z,44.83
2023-03-20T08:16:26.033Z,48.90
2023-03-20T08:18:47.577Z,45.40
2023-03-20T08:21:09.601Z,46.50
2023-03-20T08:23:31.123Z,48.87
2023-03-20T08:25:54.248Z,46.83
2023-03-20T08:28:16.301Z,46.70
2023-03-20T08:30:37.990Z,44.67
2023-03-20T08:32:59.621Z,50.10
2023-03-20T08:35:32.536Z,53.70
2023-03-20T08:37:54.568Z,48.20
2023-03-20T08:40:16.966Z,45.57
2023-03-20T08:42:38.764Z,54.13
2023-03-20T08:45:00.389Z,48.60
2023-03-20T08:47:22.377Z,48.10
2023-03-20T08:49:44.064Z,45.03
2023-03-20T08:52:06.077Z,48.73
2023-03-20T08:54:27.672Z,48.57
2023-03-20T08:56:49.207Z,45.40
2023-03-20T08:59:10.770Z,48.57
2023-03-20T09:01:47.836Z,44.47
2023-03-20T09:04:11.912Z,48.53
2023-03-20T09:06:36.898Z,50.83
2023-03-20T09:08:58.331Z,47.67
2023-03-20T09:11:19.771Z,51.47
2023-03-20T09:13:41.519Z,49.70
2023-03-20T09:16:03.734Z,50.77
2023-03-20T09:18:25.718Z,43.33
2023-03-20T09:20:48.348Z,38.30
2023-03-20T09:23:10.077Z,39.13
2023-03-20T09:25:31.500Z,33.73
2023-03-20T09:27:55.377Z,38.97
2023-03-20T09:30:17.169Z,36.70
2023-03-20T09:32:38.672Z,37.67
2023-03-20T09:35:00.342Z,32.67
2023-03-20T09:37:21.856Z,38.13
2023-03-20T09:39:43.351Z,31.77
2023-03-20T09:42:22.307Z,35.13
2023-03-20T09:45:11.162Z,36.73
2023-03-20T09:47:41.954Z,34.33
2023-03-20T09:50:25.874Z,31.07
2023-03-20T09:52:56.162Z,29.77
2023-03-20T09:55:23.331Z,32.67
2023-03-20T09:57:52.523Z,33.63
2023-03-20T10:00:27.527Z,33.03
2023-03-20T10:02:54.365Z,32.10
2023-03-20T10:05:46.201Z,30.27
2023-03-20T10:08:18.944Z,29.43
2023-03-20T10:11:03.530Z,30.90
2023-03-20T10:13:39.303Z,28.75
2023-03-20T10:16:42.627Z,29.40
2023-03-20T10:19:21.256Z,28.85
2023-03-20T10:21:49.473Z,22.35
2023-03-20T10:24:21.221Z,24.33
2023-03-20T10:26:42.970Z,22.17
2023-03-20T10:29:14.684Z,25.57
2023-03-20T10:31:41.581Z,24.10
2023-03-20T10:34:31.748Z,26.77
2023-03-20T10:37:30.473Z,23.38
2023-03-20T10:40:01.004Z,21.85
2023-03-20T10:42:30.513Z,22.02
2023-03-20T10:44:58.591Z,25.83
2023-03-20T10:47:24.496Z,22.87
2023-03-20T10:49:51.834Z,23.67
2023-03-20T10:52:18.163Z,24.30
2023-03-20T10:54:45.172Z,23.30
2023-03-20T10:57:14.934Z,23.53
2023-03-20T10:59:48.939Z,22.90
2023-03-20T11:02:12.817Z,21.50
2023-03-20T11:04:34.262Z,21.17
2023-03-20T11:07:13.922Z,24.00
2023-03-20T11:09:35.503Z,22.65
2023-03-20T11:11:59.227Z,20.30
2023-03-20T11:14:23.442Z,21.88
2023-03-20T11:16:52.066Z,19.40
2023-03-20T11:19:14.550Z,19.10
2023-03-20T11:21:45.813Z,22.38
2023-03-20T11:24:24.097Z,20.67
2023-03-20T11:26:45.583Z,20.75
2023-03-20T11:29:13.317Z,19.75
2023-03-20T11:31:38.412Z,19.20
2023-03-20T11:34:26.587Z,17.45
2023-03-20T11:37:09.766Z,16.38
2023-03-20T11:39:33.101Z,17.98
2023-03-20T11:41:56.910Z,18.73
2023-03-20T11:44:38.498Z,15.27
2023-03-20T11:47:20.571Z,15.85
2023-03-20T11:49:47.917Z,13.70
2023-03-20T11:52:25.009Z,19.25
2023-03-20T11:54:50.441Z,19.75
2023-03-20T11:57:31.287Z,18.88
2023-03-20T11:59:53.386Z,18.20
2023-03-20T12:02:23.639Z,21.67
2023-03-20T12:04:47.439Z,20.98
2023-03-20T12:07:16.341Z,19.70
2023-03-20T12:10:01.400Z,18.48
2023-03-20T12:12:42.097Z,17.40
2023-03-20T12:15:08.149Z,20.13
2023-03-20T12:17:55.831Z,19.52
2023-03-20T12:20:45.073Z,18.70
2023-03-20T12:23:13.105Z,19.60
2023-03-20T12:25:37.594Z,20.25
2023-03-20T12:28:17.930Z,19.17
2023-03-20T12:30:53.857Z,20.67
2023-03-20T12:33:49.343Z,30.50
2023-03-20T12:36:15.127Z,17.23
2023-03-20T12:38:36.683Z,20.88
2023-03-20T12:41:11.868Z,20.70
2023-03-20T12:43:47.516Z,18.95
2023-03-20T12:46:22.732Z,16.33
2023-03-20T12:48:55.860Z,16.65
2023-03-20T12:51:43.094Z,15.55
2023-03-20T12:54:19.670Z,18.70
2023-03-20T12:56:56.538Z,16.35
2023-03-20T12:59:26.544Z,16.88
2023-03-20T13:02:12.536Z,16.60
2023-03-20T13:04:59.464Z,16.30
2023-03-20T13:07:25.947Z,16.05
2023-03-20T13:09:57.287Z,16.30
2023-03-20T13:12:37.452Z,17.17
2023-03-20T13:15:05.290Z,18.65
2023-03-20T13:17:45.506Z,17.33
2023-03-20T13:20:22.118Z,18.75
2023-03-20T13:23:05.100Z,16.73
2023-03-20T13:25:48.986Z,14.48
2023-03-20T13:28:31.035Z,14.93
2023-03-20T13:31:16.570Z,16.23
2023-03-20T13:33:43.456Z,15.57
2023-03-20T13:36:26.677Z,16.85
2023-03-20T13:38:55.691Z,16.05
2023-03-20T13:41:17.556Z,18.45
2023-03-20T13:43:54.248Z,15.50
2023-03-20T13:46:23.886Z,16.40
2023-03-20T13:48:45.868Z,19.77
2023-03-20T13:51:29.323Z,16.70
2023-03-20T13:54:18.167Z,16.50
2023-03-20T13:56:42.542Z,18.25
2023-03-20T13:59:26.909Z,18.42
2023-03-20T14:02:00.943Z,18.63
2023-03-20T14:04:24.664Z,16.38
2023-03-20T14:06:53.042Z,18.02
2023-03-20T14:09:35.720Z,17.30
2023-03-20T14:12:02.287Z,18.10
2023-03-20T14:14:31.143Z,18.20
2023-03-20T14:17:21.064Z,18.90
2023-03-20T14:19:42.762Z,18.98
2023-03-20T14:22:05.482Z,18.30
2023-03-20T14:24:28.320Z,18.25
2023-03-20T14:26:55.266Z,16.27
2023-03-20T14:29:16.645Z,15.75
2023-03-20T14:31:42.262Z,19.02
2023-03-20T14:34:12.807Z,18.02
2023-03-20T14:36:59.373Z,19.55
2023-03-20T14:39:48.405Z,17.55
2023-03-20T14:42:25.225Z,16.92
2023-03-20T14:45:18.377Z,15.18
2023-03-20T14:47:52.578Z,15.63
2023-03-20T14:50:32.943Z,15.65
2023-03-20T14:53:16.294Z,16.92
2023-03-20T14:55:56.088Z,14.07
2023-03-20T14:58:53.313Z,14.68
2023-03-20T15:01:24.724Z,14.75
2023-03-20T15:03:51.433Z,15.75
2023-03-20T15:06:12.996Z,15.73
2023-03-20T15:08:42.180Z,14.20
2023-03-20T15:11:08.910Z,13.73
2023-03-20T15:13:31.112Z,14.20
2023-03-20T15:16:05.317Z,14.80
2023-03-20T15:18:27.834Z,16.25
2023-03-20T15:20:49.422Z,16.55
2023-03-20T15:23:11.041Z,18.00
2023-03-20T15:25:38.493Z,14.25
2023-03-20T15:28:00.161Z,18.08
2023-03-20T15:30:23.111Z,16.52
2023-03-20T15:32:46.095Z,16.17
2023-03-20T15:35:08.500Z,15.68
2023-03-20T15:37:30.028Z,15.38
2023-03-20T15:39:56.236Z,15.18
2023-03-20T15:42:21.886Z,15.73
2023-03-20T15:44:45.758Z,15.70
2023-03-20T15:47:07.153Z,15.82
2023-03-20T15:49:31.094Z,14.65
2023-03-20T15:51:54.523Z,17.20
2023-03-20T15:54:17.949Z,14.57
2023-03-20T15:56:43.188Z,15.87
2023-03-20T15:59:04.676Z,15.90
2023-03-20T16:01:26.540Z,16.97
2023-03-20T16:03:49.392Z,18.20
2023-03-20T16:06:15.374Z,16.20
2023-03-20T16:08:36.931Z,17.97
2023-03-20T16:11:04.678Z,17.40
2023-03-20T16:13:28.621Z,19.07
2023-03-20T16:15:50.951Z,17.67
2023-03-20T16:18:16.538Z,14.10
2023-03-20T16:20:45.102Z,18.13
2023-03-20T16:23:08.858Z,18.23
2023-03-20T16:25:30.593Z,15.73
2023-03-20T16:27:53.364Z,15.63
2023-03-20T16:30:19.025Z,16.20
2023-03-20T16:32:42.679Z,14.90
2023-03-20T16:35:13.545Z,12.53
2023-03-20T16:37:43.632Z,13.10
2023-03-20T16:40:33.969Z,15.23
2023-03-20T16:42:57.247Z,18.80
2023-03-20T16:45:26.562Z,15.23
2023-03-20T16:47:49.054Z,13.77
2023-03-20T16:50:20.256Z,11.80
2023-03-20T16:52:46.641Z,9.23
2023-03-20T16:55:15.911Z,7.57
2023-03-20T16:57:37.648Z,6.53
2023-03-20T17:00:27.379Z,7.10
2023-03-20T17:02:59.748Z,8.50
2023-03-20T17:05:22.125Z,6.50
2023-03-20T17:07:43.601Z,7.27
2023-03-20T17:10:17.216Z,20.60
2023-03-20T17:12:40.764Z,5.67
2023-03-20T17:15:02.255Z,5.30
2023-03-20T17:17:25.108Z,6.80
2023-03-20T17:19:49.344Z,4.87
2023-03-20T17:22:15.063Z,4.40
2023-03-20T17:24:36.470Z,5.13
2023-03-20T17:26:58.261Z,4.60
2023-03-20T17:29:19.724Z,4.70
2023-03-20T17:31:41.269Z,2.87
2023-03-20T17:34:02.701Z,3.17
2023-03-20T17:36:30.577Z,3.53
2023-03-20T17:38:52.839Z,3.97
2023-03-20T17:41:16.300Z,2.57
2023-03-20T17:43:37.741Z,3.60
2023-03-20T17:45:59.419Z,3.23
2023-03-20T17:48:21.578Z,4.17
2023-03-20T17:50:45.559Z,4.03
2023-03-20T17:53:13.762Z,3.17
2023-03-20T17:55:35.381Z,3.53
2023-03-20T17:57:56.903Z,4.70
2023-03-20T18:00:21.293Z,4.47
2023-03-20T18:02:42.856Z,4.10
2023-03-20T18:05:07.776Z,3.00
2023-03-20T18:07:29.351Z,3.93
2023-03-20T18:09:50.790Z,3.43
2023-03-20T18:12:15.794Z,3.10
2023-03-20T18:14:37.805Z,2.30
2023-03-20T18:16:59.235Z,4.10
2023-03-20T18:19:28.309Z,4.97
2023-03-20T18:21:49.787Z,5.27
2023-03-20T18:24:11.255Z,4.93
2023-03-20T18:26:32.751Z,3.70
2023-03-20T18:28:55.291Z,8.30
2023-03-20T18:31:19.134Z,3.27
2023-03-20T18:33:40.723Z,6.63
2023-03-20T18:36:02.405Z,4.90
2023-03-20T18:38:25.643Z,3.47
2023-03-20T18:40:47.578Z,3.80
2023-03-20T18:43:10.859Z,4.50
2023-03-20T18:45:32.654Z,3.53
2023-03-20T18:47:55.565Z,3.90
2023-03-20T18:50:30.604Z,4.03
2023-03-20T18:52:54.076Z,3.10
2023-03-20T18:55:16.266Z,4.03
2023-03-20T18:57:42.991Z,2.83
2023-03-20T19:00:14.561Z,2.97
2023-03-20T19:02:36.049Z,5.83
2023-03-20T19:04:57.544Z,4.90
2023-03-20T19:07:18.994Z,3.73
2023-03-20T19:09:40.620Z,5.93
2023-03-20T19:12:02.074Z,2.57
2023-03-20T19:14:25.738Z,2.93
2023-03-20T19:16:47.273Z,3.67
2023-03-20T19:19:11.866Z,3.80
2023-03-20T19:21:34.765Z,2.40
2023-03-20T19:24:01.300Z,3.83
2023-03-20T19:26:26.924Z,5.33
2023-03-20T19:28:49.084Z,3.27
2023-03-20T19:31:11.054Z,3.30
2023-03-20T19:33:33.350Z,2.40
2023-03-20T19:36:02.711Z,2.70
2023-03-20T19:38:25.379Z,4.93
2023-03-20T19:40:49.350Z,3.23
2023-03-20T19:43:11.313Z,4.50
2023-03-20T19:45:36.065Z,3.67
2023-03-20T19:47:58.028Z,3.47
2023-03-20T19:50:34.728Z,3.03
2023-03-20T19:52:57.647Z,4.33
2023-03-20T19:55:19.117Z,3.60
2023-03-20T19:57:40.653Z,2.30
2023-03-20T20:00:55.005Z,3.40
2023-03-20T20:02:46.076Z,3.93
2023-03-20T20:05:14.535Z,5.37
2023-03-20T20:08:09.074Z,3.10
2023-03-20T20:10:17.704Z,3.60
2023-03-20T20:12:39.238Z,3.17
2023-03-20T20:15:00.737Z,4.90
2023-03-20T20:17:22.183Z,5.40
2023-03-20T20:19:44.251Z,6.33
2023-03-20T20:22:26.009Z,3.50
2023-03-20T20:24:49.187Z,4.23
2023-03-20T20:27:19.331Z,2.70
2023-03-20T20:29:40.946Z,3.47
2023-03-20T20:32:02.569Z,3.13
2023-03-20T20:38:09.102Z,3.70
2023-03-20T20:39:48.198Z,5.20
2023-03-20T20:42:09.726Z,3.37
2023-03-20T20:44:31.292Z,3.53
2023-03-20T20:46:52.789Z,7.33
2023-03-20T20:49:19.585Z,3.20
2023-03-20T20:51:41.545Z,4.33
2023-03-20T20:54:03.029Z,4.70
2023-03-20T20:56:24.551Z,3.27
2023-03-20T20:58:46.050Z,4.40
2023-03-20T21:01:07.525Z,6.27
2023-03-20T21:03:29.181Z,4.37
2023-03-20T21:05:51.135Z,4.40
2023-03-20T21:08:14.166Z,3.87
2023-03-20T21:10:35.908Z,3.50
2023-03-20T21:12:59.794Z,3.87
2023-03-20T21:15:21.761Z,3.70
2023-03-20T21:17:57.853Z,3.90
2023-03-20T21:20:23.676Z,3.53
2023-03-20T21:22:45.397Z,4.07
2023-03-20T21:25:14.992Z,5.97
2023-03-20T21:27:37.064Z,4.97
2023-03-20T21:29:58.514Z,4.87
2023-03-20T21:32:21.109Z,9.70
2023-03-20T21:34:42.865Z,6.13
2023-03-20T21:38:04.006Z,4.67
2023-03-20T21:39:49.461Z,5.00
2023-03-20T21:42:11.438Z,3.87
2023-03-20T21:45:17.851Z,7.53
2023-03-20T21:48:17.224Z,6.40
2023-03-20T21:53:12.566Z,4.97
2023-03-20T21:56:27.748Z,5.30
2023-03-20T21:58:44.345Z,6.37
2023-03-20T22:04:06.314Z,6.07
2023-03-20T22:17:51.384Z,5.43
2023-03-20T22:23:07.532Z,6.30
2023-03-20T22:25:41.474Z,4.40
2023-03-20T22:28:15.651Z,5.47
2023-03-20T22:31:13.311Z,5.83
2023-03-20T22:34:09.219Z,11.30
2023-03-20T22:36:26.708Z,6.97
2023-03-20T22:46:45.208Z,6.80
2023-03-20T22:49:07.911Z,8.33
2023-03-20T22:51:36.825Z,6.33
2023-03-20T22:54:02.832Z,7.13
2023-03-20T22:56:24.582Z,7.07
2023-03-20T22:58:46.434Z,5.90
2023-03-20T23:01:09.323Z,5.90
2023-03-20T23:03:40.829Z,6.97
2023-03-20T23:06:20.308Z,7.03
2023-03-20T23:08:49.327Z,7.93
2023-03-20T23:11:13.933Z,5.97
2023-03-20T23:13:35.845Z,8.97
2023-03-20T23:15:57.324Z,7.00
2023-03-20T23:18:18.873Z,6.40
2023-03-20T23:20:40.916Z,8.47
2023-03-20T23:23:02.378Z,7.80
2023-03-20T23:25:38.162Z,6.63
2023-03-20T23:28:00.977Z,5.57
2023-03-20T23:30:25.319Z,7.50
2023-03-20T23:32:49.022Z,7.33
2023-03-20T23:35:10.892Z,5.53
2023-03-20T23:37:32.964Z,5.93
2023-03-20T23:39:54.424Z,10.47
2023-03-20T23:42:29.611Z,8.37
2023-03-20T23:44:56.324Z,7.03
2023-03-20T23:47:21.263Z,6.07
2023-03-20T23:49:45.849Z,6.53
2023-03-20T23:52:07.777Z,8.33
2023-03-20T23:54:29.485Z,8.63
2023-03-20T23:56:50.976Z,7.57
2023-03-20T23:59:21.079Z,9.13
